Terminal Aerodrome Forecast
Issued by NWS Lake Charles, LA

Home | Current Version | Previous Version | Text Only | Print | Product List | Glossary On
Versions: 1 2 3 4 5 6 7 8 9 10 11 12
000
FTUS44 KLCH 250520
TAFARA
TAF
KARA 250520Z 2506/2606 14005KT P6SM FEW025 SCT200
     FM251200 15006KT P6SM FEW015 SCT025
     FM251400 16012G19KT P6SM SCT015 BKN025
     FM251600 17014G21KT P6SM SCT025 BKN035
     FM260100 15008KT P6SM SCT040=

USA.gov is the U.S. government's official web portal to all federal, state and local government web resources and services.